Valley Stream, NY

7:48 PM EDT on September 23, 2014 (GMT -0400)
Valley Stream | Change Station
CLOSE
Current Station
Personal Weather Station
Location: Valley Stream, NY
Elevation: 16 ft
Nearby Weather Stations

Elev 16 ft 40.67 °N, 73.71 °W | Updated 31 seconds ago

Partly Cloudy
Partly Cloudy
64.3 °F
Feels Like 64.3 °F
N
1.0
Wind Variable Wind from SW

Today
High -- | Low -- °F
--% Chance of Precip.
Yesterday
High -- | Low -- °F
Precip. -- in
6:43 AM 6:50 PM
Waning Crescent, 0% visible
Pressure 30.33 in
Visibility 10.0 miles
Clouds Mostly Cloudy 25000 ft
Dew Point 51 °F
Humidity 63%
Rainfall 0.00 in
Snow Depth Not available.
UV 0 out of 12
Pollen 2.40 out of 12
Air Quality Not available.
Flu Activity Not available.
METAR KJFK 232251Z 18005KT 10SM BKN250 18/11 A3033 RMK AO2 SLP271 T01780106

More Conditions Fewer Conditions

Pressure 30.33 in
Visibility 10.0 miles
Clouds Mostly Cloudy 25000 ft
Dew Point 51 °F
Humidity 63%
Rainfall 0.00 in
Snow Depth Not available.
UV 0 out of 12
Pollen 2.40 out of 12
Air Quality Not available.
Flu Activity Not available.
METAR KJFK 232251Z 18005KT 10SM BKN250 18/11 A3033 RMK AO2 SLP271 T01780106

More Conditions Fewer Conditions

10-Day Weather Forecast

Almanac

Astronomy

Sep. 23, 2014 Rise Set
Actual Time 6:43 AM EDT 6:50 PM EDT
Civil Twilight 6:16 AM EDT 7:17 PM EDT
Nautical Twilight 5:44 AM EDT 7:49 PM EDT
Astronomical Twilight 5:11 AM EDT 8:21 PM EDT
Moon 6:05 AM EDT 6:27 PM EDT
Length of Visible Light 13h 01m
Length of Day
12h 07m
Tomorrow will be 2m 40s shorter.
Waning Crescent, 0% of the Moon is Illuminated
Today
Waning Crescent
Sep 24
New
Oct 1
First Quarter
Oct 8
Full
Oct 15
Last Quarter

Today's Extremes

State Highs State Lows

Community

WunderPhotos

Upload Photos

1,755,821 photos uploaded!

WunderBlogs® & News

Nearby

Snow Depth

Station Depth Elevation
No new snow has been reported.

Earthquake Activity

City Distance Mag. Time & Date
No recent earthquake activity has been reported nearby.
Minimum magnitude displayed is 2.5.

Coastal Water Temperatures

Place Temperature
Sandy Hook, NJ 69.1 °F
The Battery, NY 70.0 °F
Bergen Point West Reach, NJ 70.0 °F
Kings Point, NY 68.0 °F

Nearby Weather Stations